Logo AVAMET
Benvolgut visitant, si us plau, ingressa Recuperar contrasenya
AVAMET paisatges
Union Alcoyana

Dénia Joan Chabàs

Dades diàries. Acumulats / Últims 30 dies disponibles

Data Temperatura (°C) Humitat rel. (%) Pressió rel. (hPa) Vent (km/h) Precipitació
Mínima Mitjana Màxima Amplitud
tèrmica
Mínima Mitjana Màxima Mínima Mitjana Màxima Predom. Mitjana Ràfega
màxima
Total
(mm)
Índex-n
Mínima Mitjana Màxima Mínima Mitjana Màxima n
0 a 1
P0 max
mm 5'
Dades mensuals acumulades fins l'últim dia disponible
06/2021 17,7 19,6 21,9 22,4 20,9 25,8 31,6 13,9 23 75 92 1.007 1.016 1.022   6,2 40,7 13,2
Dades anuals acumulades fins l'últim dia disponible
2021 2,8 12,8 23,2 15,7 9,2 19,0 33,6 30,8 23 70 95 999 1.016 1.034   8,1 88,8 344,0
Últims 30 dies disponibles
16-06-2021 21,5     24,1     26,7 5,2 64 76 88 1.007 1.010 1.013 SO 6,2 32,2 0,0
15-06-2021 21,9     25,0     29,2 7,3 40 57 77 1.013 1.014 1.016 SSE 4,2 20,9 0,0
14-06-2021 20,3     25,4     31,6 11,3 23 55 79 1.013 1.016 1.017 SSE 5,9 31,5 0,0
13-06-2021 20,7     23,7     25,9 5,2 56 71 81 1.016 1.018 1.020 S 5,8 19,3 0,0
12-06-2021 20,6     23,3     25,8 5,2 50 72 89 1.016 1.018 1.019 SSO 6,3 24,1 0,0
11-06-2021 19,8     22,9     25,9 6,1 41 71 83 1.014 1.015 1.016 SSE 5,6 24,1 0,2
10-06-2021 19,8     23,1     27,8 8,0 34 70 89 1.014 1.017 1.019 S 8,4 40,7 0,0
09-06-2021 18,7     22,8     29,2 10,5 37 74 84 1.015 1.017 1.019 SSE 6,8 37,0 0,0
08-06-2021 19,1     22,4     27,2 8,1 50 75 88 1.015 1.018 1.019 SSO 7,3 37,0 0,0
07-06-2021 18,6     23,2     29,2 10,6 54 73 88 1.014 1.018 1.020 S 5,2 29,6 0,0
06-06-2021 17,7     20,3     24,2 6,5 65 78 92 1.017 1.019 1.020 S 5,5 24,1 0,8
05-06-2021 19,0     20,0     20,9 1,9 81 86 91 1.018 1.020 1.022 SO 7,0 27,8 5,6 0,39 0,50
04-06-2021 20,3     21,1     22,3 2,0 75 84 89 1.017 1.018 1.021 S 7,0 25,9 0,0
03-06-2021 19,3     20,9     23,0 3,7 76 84 90 1.016 1.017 1.018 SSE 7,5 22,5 0,0
02-06-2021 18,2     20,2     22,2 4,0 69 85 92 1.011 1.013 1.016 SSE 6,1 25,9 0,0
01-06-2021 18,6     19,5     21,2 2,6 77 86 90 1.008 1.010 1.012 SSO 4,8 32,2 6,6 0,19 2,40
31-05-2021 17,9     20,9     24,1 6,2 32 68 82 1.011 1.013 1.016 SSE 5,6 32,2 0,0
30-05-2021 18,1     22,8     26,9 8,8 25 49 81 1.012 1.015 1.017 SSE 7,5 51,8 0,0
29-05-2021 15,8     21,0     27,4 11,6 26 61 85 1.015 1.017 1.018 SSE 6,2 31,5 0,0
28-05-2021 16,8     18,8     20,8 4,0 69 80 86 1.014 1.015 1.017 SSO 6,3 24,1 0,4
27-05-2021 15,8     18,7     22,2 6,4 51 73 83 1.014 1.016 1.017 SSE 6,2 32,2 0,4
26-05-2021 15,2     18,1     19,8 4,6 57 77 89 1.016 1.019 1.022 SE 5,9 27,8 0,0
25-05-2021 17,5     19,1     23,8 6,3 44 77 86 1.018 1.021 1.023 S 8,8 37,0 0,0
24-05-2021 13,7     19,8     26,4 12,7 39 65 94 1.015 1.017 1.018 SSO 6,4 29,6 9,8 0,23 0,60
23-05-2021 14,4     16,7     18,7 4,3 71 88 93 1.013 1.015 1.017 ESE 10,4 38,9 36,4 0,30 1,20
22-05-2021 17,7     18,6     20,6 2,9 75 84 88 1.009 1.011 1.014 SSO 7,3 24,1 0,0
21-05-2021 16,7     22,1     29,3 12,6 33 55 87 1.006 1.013 1.018 SSE 7,2 50,0 0,0
20-05-2021 16,4     19,6     22,2 5,8 45 68 82 1.017 1.020 1.023 S 10,6 46,7 0,0
19-05-2021 18,3     19,1     20,7 2,4 70 77 85 1.014 1.019 1.022 SSE 9,2 35,4 0,0
18-05-2021 17,1     21,5     28,3 11,2 39 66 85 1.010 1.015 1.019 S 10,9 48,3 0,0
Últims 13 mesos disponibles
05/2021 13,5 16,4 23,2 19,9 16,6 24,2 33,6 20,1 35 66 88 1.007 1.014 1.021 SSE 9,0 68,5 53,0
04/2021 8,7 12,3 15,8 14,9 13,5 17,8 24,3 15,6 58 76 89 1.004 1.014 1.023 S 7,2 50,0 56,8
03/2021 6,9 10,8 13,6 13,4 11,6 16,5 22,7 15,8 51 76 91 1.011 1.020 1.028 S 7,9 66,6 117,2
02/2021 9,3 12,0 17,0 14,3 13,5 17,2 22,8 13,5 45 70 88 1.001 1.017 1.033 S 8,1 68,5 1,2
01/2021 2,8 9,0 17,3 12,2 9,2 15,8 27,4 24,6 42 60 89 1.004 1.015 1.026 S 9,2 88,8 102,6
12/2020 4,4 9,8 15,8 13,3 12,5 16,7 22,8 18,4 37 61 87 996 1.013 1.026 SSO 8,8 77,7 2,8
11/2020 8,1 13,6 18,2 16,4 14,5 19,7 26,3 18,2 68 81 91 1.004 1.020 1.028 SSO 3,0 57,9 248,1
10/2020 12,2 16,2 19,6 20,1 19,2 23,9 30,3 18,1 40 59 83 997 1.016 1.024 S 5,4 59,5 3,9
09/2020 16,9 20,6 24,4 24,1 23,4 27,3 31,7 14,8 38 64 76 1.010 1.015 1.021 SSO 5,3 51,8 11,0
08/2020 18,7 24,6 26,7 28,2 24,9 32,4 40,4 21,7 45 65 83 1.003 1.012 1.017 S 6,0 59,5 109,1
07/2020 21,2 24,2 25,9 26,9 27,9 30,3 37,6 16,4 50 69 82 1.009 1.014 1.019 SSE 6,2 68,5 1,9
06/2020 16,4 20,6 23,6 24,1 20,7 28,1 33,6 17,2 41 66 83 1.004 1.013 1.019 S 6,5 57,9 18,5
05/2020 14,0 18,0 21,5 21,6 20,2 25,7 31,4 17,4 44 66 84 1.004 1.015 1.026 S 5,8 53,7 19,8
Tots els anys disponibles
2020 4,4 16,3 26,7 19,6 12,0 23,2 40,4 36,0 37 68 93 0 1.014 1.032 S 5,7 101,8 708,0
2019 3,6 15,7 27,6 19,5 13,2 23,6 40,2 36,6 36 65 93 995 1.016 1.033 S 6,2 103,6 810,0
2018 5,3 16,3 27,5 19,7 8,6 23,2 37,8 32,5 34 65 92 993 1.015 1.034 SSO 0,7 89,0 625,8
2017 0,6 16,0 27,5 19,5 10,0 22,9 37,2 36,6 31 66 91 999 1.018 1.036 93,0 587,2
2016 3,9 16,3 26,7 19,5 11,8 22,7 37,8 33,9 59 66 80 1.013 1.017 1.026 89,0 457,1
2015 4,1 16,1 23,5 19,5 21,4 22,9 40,4 36,3 59 67 80 1.014 1.018 1.030 76,0 628,2
2014 5,9 16,6 27,0 19,9 11,8 23,2 38,2 32,3 37 64 90 992 1.015 1.033 6,8 85,0 235,4
2013 3,4 15,6 19,2 18,9 19,5 22,2 34,4 31,0 55 63 72 1.007 1.015 1.024 5,7 98,0 642,8
2012 1,6 15,6 22,1 19,0 19,2 22,7 39,4 37,8 7,9 75,9 532,2
2011 1,4 16,1 25,7 19,3 6,7 22,6 37,2 35,8 7,4 98,0 478,4
2010 3,1 15,2 26,2 18,4 6,1 21,7 41,9 38,8 7,8 101,8 604,1
2009 2,9 17,9 26,5 21,3 9,1 24,9 38,6 35,7 7,6 99,9 848,8
Temperatura (°C)
Humitat relativa (%)
Velocitat del vent i ràfega màxima (km/h)
Direcció del vent (°)
Pressió (hPa)
Precipitació (mm)
Nota sobre les dades: s'avisa a l'usuari de la provisionalitat i no oficialitat d'aquestes dades
Logo AVAMET blanc
Web allotjada a Sollutia
Llicència de Creative CommonsLa web d'AVAMET i els seus continguts estan subjectes a una llicència de
Reconeixement - No Comercial - Compartir igual
Avís legal - Política de privacitat - Política de cookies
NOVES ESTACIONS: la Vila Joiosa - Salomó del Carabassot (Soci), Ares del Maestrat - la Vall de Catí (Soci), Alpuente - la Torre (Soci), Gaibiel (Ajuntament/Soci), Almenara - Comunitat de Regants (Soci), Gandia - Camí de la mar (Soci), Ayódar (Soci),  Busot - Policia Local (Ajuntament/Soci), Vilafranca - la Pobla del Bellestar (Ajuntament/Soci), la Serratella (Ajuntament/Soci),  Xixona - Cantal del Tormo (Soci), - - -